sensor_id;sensor_type;location;lat;lon;timestamp;P1;durP1;ratioP1;P2;durP2;ratioP2
35578;SDS011;21687;48.900;9.188;2023-01-10T00:00:39;1.60;;;1.30;;
35578;SDS011;21687;48.900;9.188;2023-01-10T00:03:07;1.47;;;1.37;;
35578;SDS011;21687;48.900;9.188;2023-01-10T00:05:35;1.90;;;1.40;;
35578;SDS011;21687;48.900;9.188;2023-01-10T00:08:02;1.83;;;1.20;;
35578;SDS011;21687;48.900;9.188;2023-01-10T00:10:30;1.83;;;1.20;;
35578;SDS011;21687;48.900;9.188;2023-01-10T00:12:57;1.50;;;1.40;;
35578;SDS011;21687;48.900;9.188;2023-01-10T00:15:43;1.50;;;1.40;;
35578;SDS011;21687;48.900;9.188;2023-01-10T00:18:09;1.93;;;1.33;;
35578;SDS011;21687;48.900;9.188;2023-01-10T00:20:36;1.83;;;1.73;;
35578;SDS011;21687;48.900;9.188;2023-01-10T00:23:02;1.80;;;1.70;;
35578;SDS011;21687;48.900;9.188;2023-01-10T00:25:28;1.97;;;1.80;;
35578;SDS011;21687;48.900;9.188;2023-01-10T00:27:57;1.97;;;1.87;;
35578;SDS011;21687;48.900;9.188;2023-01-10T00:30:32;3.10;;;2.20;;
35578;SDS011;21687;48.900;9.188;2023-01-10T00:32:59;2.33;;;2.03;;
35578;SDS011;21687;48.900;9.188;2023-01-10T00:35:26;2.83;;;2.60;;
35578;SDS011;21687;48.900;9.188;2023-01-10T00:37:52;3.70;;;2.50;;
35578;SDS011;21687;48.900;9.188;2023-01-10T00:40:24;2.40;;;2.20;;
35578;SDS011;21687;48.900;9.188;2023-01-10T00:42:50;2.57;;;2.37;;
35578;SDS011;21687;48.900;9.188;2023-01-10T00:45:35;3.50;;;2.50;;
35578;SDS011;21687;48.900;9.188;2023-01-10T00:48:01;3.13;;;2.33;;
35578;SDS011;21687;48.900;9.188;2023-01-10T00:50:28;3.60;;;2.37;;
35578;SDS011;21687;48.900;9.188;2023-01-10T00:52:54;2.30;;;2.10;;
35578;SDS011;21687;48.900;9.188;2023-01-10T00:55:20;2.97;;;2.23;;
35578;SDS011;21687;48.900;9.188;2023-01-10T00:57:46;2.57;;;2.37;;
35578;SDS011;21687;48.900;9.188;2023-01-10T01:00:13;4.70;;;2.80;;
35578;SDS011;21687;48.900;9.188;2023-01-10T01:02:39;2.80;;;2.10;;
35578;SDS011;21687;48.900;9.188;2023-01-10T01:05:06;3.13;;;2.43;;
35578;SDS011;21687;48.900;9.188;2023-01-10T01:07:32;2.67;;;2.47;;
35578;SDS011;21687;48.900;9.188;2023-01-10T01:09:59;3.87;;;2.40;;
35578;SDS011;21687;48.900;9.188;2023-01-10T01:12:44;2.80;;;2.60;;
35578;SDS011;21687;48.900;9.188;2023-01-10T01:15:10;2.80;;;2.60;;
35578;SDS011;21687;48.900;9.188;2023-01-10T01:17:36;3.50;;;2.80;;
35578;SDS011;21687;48.900;9.188;2023-01-10T01:20:03;2.77;;;2.53;;
35578;SDS011;21687;48.900;9.188;2023-01-10T01:22:30;4.87;;;2.80;;
35578;SDS011;21687;48.900;9.188;2023-01-10T01:24:57;2.83;;;2.50;;
35578;SDS011;21687;48.900;9.188;2023-01-10T01:27:23;3.60;;;3.27;;
35578;SDS011;21687;48.900;9.188;2023-01-10T01:29:49;2.80;;;2.60;;
35578;SDS011;21687;48.900;9.188;2023-01-10T01:32:15;2.30;;;2.10;;
35578;SDS011;21687;48.900;9.188;2023-01-10T01:34:43;3.93;;;2.37;;
35578;SDS011;21687;48.900;9.188;2023-01-10T01:37:09;3.30;;;2.40;;
35578;SDS011;21687;48.900;9.188;2023-01-10T01:39:35;3.53;;;2.17;;
35578;SDS011;21687;48.900;9.188;2023-01-10T01:42:01;2.47;;;2.27;;
35578;SDS011;21687;48.900;9.188;2023-01-10T01:44:30;3.70;;;2.47;;
35578;SDS011;21687;48.900;9.188;2023-01-10T01:47:04;2.40;;;2.20;;
35578;SDS011;21687;48.900;9.188;2023-01-10T01:49:32;2.13;;;1.90;;
35578;SDS011;21687;48.900;9.188;2023-01-10T01:52:02;4.80;;;2.07;;
35578;SDS011;21687;48.900;9.188;2023-01-10T01:54:40;1.80;;;1.70;;
35578;SDS011;21687;48.900;9.188;2023-01-10T01:57:08;2.30;;;1.80;;
35578;SDS011;21687;48.900;9.188;2023-01-10T01:59:39;2.63;;;1.90;;
35578;SDS011;21687;48.900;9.188;2023-01-10T02:02:32;1.67;;;1.57;;
35578;SDS011;21687;48.900;9.188;2023-01-10T02:05:04;2.37;;;1.70;;
35578;SDS011;21687;48.900;9.188;2023-01-10T02:07:35;2.23;;;1.60;;
35578;SDS011;21687;48.900;9.188;2023-01-10T02:12:34;1.80;;;1.70;;
35578;SDS011;21687;48.900;9.188;2023-01-10T02:15:01;1.60;;;1.50;;
35578;SDS011;21687;48.900;9.188;2023-01-10T02:17:28;2.80;;;1.77;;
35578;SDS011;21687;48.900;9.188;2023-01-10T02:30:59;2.53;;;2.00;;
35578;SDS011;21687;48.900;9.188;2023-01-10T02:36:59;2.20;;;1.80;;
35578;SDS011;21687;48.900;9.188;2023-01-10T02:39:38;3.00;;;1.63;;
35578;SDS011;21687;48.900;9.188;2023-01-10T02:42:24;7.10;;;2.60;;
35578;SDS011;21687;48.900;9.188;2023-01-10T02:45:37;4.53;;;2.20;;
35578;SDS011;21687;48.900;9.188;2023-01-10T02:47:55;2.50;;;1.90;;
35578;SDS011;21687;48.900;9.188;2023-01-10T02:53:10;3.40;;;2.10;;
35578;SDS011;21687;48.900;9.188;2023-01-10T03:01:50;2.27;;;2.07;;
35578;SDS011;21687;48.900;9.188;2023-01-10T03:06:53;2.10;;;1.90;;
35578;SDS011;21687;48.900;9.188;2023-01-10T03:09:36;1.80;;;1.70;;
35578;SDS011;21687;48.900;9.188;2023-01-10T03:12:16;2.90;;;1.90;;
35578;SDS011;21687;48.900;9.188;2023-01-10T03:14:49;3.70;;;1.90;;
35578;SDS011;21687;48.900;9.188;2023-01-10T03:17:18;1.87;;;1.57;;
35578;SDS011;21687;48.900;9.188;2023-01-10T03:19:48;2.10;;;1.90;;
35578;SDS011;21687;48.900;9.188;2023-01-10T03:22:17;3.27;;;2.13;;
35578;SDS011;21687;48.900;9.188;2023-01-10T03:24:45;3.37;;;2.00;;
35578;SDS011;21687;48.900;9.188;2023-01-10T03:27:17;5.83;;;2.10;;
35578;SDS011;21687;48.900;9.188;2023-01-10T03:32:42;3.17;;;2.30;;
35578;SDS011;21687;48.900;9.188;2023-01-10T03:35:08;3.80;;;2.00;;
35578;SDS011;21687;48.900;9.188;2023-01-10T03:37:37;4.03;;;2.33;;
35578;SDS011;21687;48.900;9.188;2023-01-10T03:45:48;4.87;;;2.57;;
35578;SDS011;21687;48.900;9.188;2023-01-10T03:48:22;5.80;;;2.60;;
35578;SDS011;21687;48.900;9.188;2023-01-10T03:50:53;6.50;;;2.50;;
35578;SDS011;21687;48.900;9.188;2023-01-10T03:53:21;4.97;;;2.40;;
35578;SDS011;21687;48.900;9.188;2023-01-10T03:55:47;2.87;;;2.40;;
35578;SDS011;21687;48.900;9.188;2023-01-10T03:58:14;7.50;;;2.40;;
35578;SDS011;21687;48.900;9.188;2023-01-10T04:00:41;4.97;;;2.70;;
35578;SDS011;21687;48.900;9.188;2023-01-10T04:03:07;3.43;;;2.30;;
35578;SDS011;21687;48.900;9.188;2023-01-10T04:05:34;5.63;;;3.53;;
35578;SDS011;21687;48.900;9.188;2023-01-10T04:08:03;3.67;;;2.60;;
35578;SDS011;21687;48.900;9.188;2023-01-10T04:10:29;5.40;;;2.70;;
35578;SDS011;21687;48.900;9.188;2023-01-10T04:12:59;4.40;;;2.40;;
35578;SDS011;21687;48.900;9.188;2023-01-10T04:15:27;4.37;;;2.70;;
35578;SDS011;21687;48.900;9.188;2023-01-10T04:17:53;4.40;;;2.70;;
35578;SDS011;21687;48.900;9.188;2023-01-10T04:20:20;4.17;;;2.40;;
35578;SDS011;21687;48.900;9.188;2023-01-10T04:22:50;5.57;;;2.27;;
35578;SDS011;21687;48.900;9.188;2023-01-10T04:25:18;5.63;;;2.87;;
35578;SDS011;21687;48.900;9.188;2023-01-10T04:27:48;4.53;;;2.87;;
35578;SDS011;21687;48.900;9.188;2023-01-10T04:30:16;7.13;;;3.10;;
35578;SDS011;21687;48.900;9.188;2023-01-10T04:32:43;5.57;;;2.67;;
35578;SDS011;21687;48.900;9.188;2023-01-10T04:35:10;6.73;;;3.03;;
35578;SDS011;21687;48.900;9.188;2023-01-10T04:37:36;4.43;;;2.77;;
35578;SDS011;21687;48.900;9.188;2023-01-10T04:40:02;3.70;;;2.60;;
35578;SDS011;21687;48.900;9.188;2023-01-10T04:42:29;6.17;;;3.30;;
35578;SDS011;21687;48.900;9.188;2023-01-10T04:44:55;5.33;;;3.03;;
35578;SDS011;21687;48.900;9.188;2023-01-10T04:47:22;6.00;;;3.97;;
35578;SDS011;21687;48.900;9.188;2023-01-10T04:49:48;6.67;;;2.97;;
35578;SDS011;21687;48.900;9.188;2023-01-10T04:52:14;6.17;;;3.20;;
35578;SDS011;21687;48.900;9.188;2023-01-10T04:54:41;5.30;;;3.20;;
35578;SDS011;21687;48.900;9.188;2023-01-10T04:57:07;10.47;;;3.53;;
35578;SDS011;21687;48.900;9.188;2023-01-10T04:59:33;5.20;;;3.10;;
35578;SDS011;21687;48.900;9.188;2023-01-10T05:01:59;7.37;;;3.07;;
35578;SDS011;21687;48.900;9.188;2023-01-10T05:04:25;7.70;;;3.10;;
35578;SDS011;21687;48.900;9.188;2023-01-10T05:06:52;9.73;;;3.33;;
35578;SDS011;21687;48.900;9.188;2023-01-10T05:09:18;7.13;;;3.53;;
35578;SDS011;21687;48.900;9.188;2023-01-10T05:11:44;9.20;;;3.37;;
35578;SDS011;21687;48.900;9.188;2023-01-10T05:14:10;7.80;;;2.90;;
35578;SDS011;21687;48.900;9.188;2023-01-10T05:16:37;8.60;;;3.33;;
35578;SDS011;21687;48.900;9.188;2023-01-10T05:19:03;10.03;;;3.77;;
35578;SDS011;21687;48.900;9.188;2023-01-10T05:21:29;8.30;;;3.47;;
35578;SDS011;21687;48.900;9.188;2023-01-10T05:23:55;8.33;;;3.60;;
35578;SDS011;21687;48.900;9.188;2023-01-10T05:26:22;9.73;;;3.13;;
35578;SDS011;21687;48.900;9.188;2023-01-10T05:28:48;9.13;;;2.90;;
35578;SDS011;21687;48.900;9.188;2023-01-10T05:31:15;13.73;;;2.93;;
35578;SDS011;21687;48.900;9.188;2023-01-10T05:33:44;11.63;;;3.43;;
35578;SDS011;21687;48.900;9.188;2023-01-10T05:36:11;10.33;;;3.80;;
35578;SDS011;21687;48.900;9.188;2023-01-10T05:38:37;9.83;;;3.00;;
35578;SDS011;21687;48.900;9.188;2023-01-10T05:41:04;7.83;;;2.60;;
35578;SDS011;21687;48.900;9.188;2023-01-10T05:43:30;12.03;;;3.13;;
35578;SDS011;21687;48.900;9.188;2023-01-10T05:45:57;15.13;;;2.70;;
35578;SDS011;21687;48.900;9.188;2023-01-10T05:48:23;3.87;;;2.40;;
35578;SDS011;21687;48.900;9.188;2023-01-10T05:50:50;11.17;;;2.70;;
35578;SDS011;21687;48.900;9.188;2023-01-10T05:53:17;10.50;;;2.77;;
35578;SDS011;21687;48.900;9.188;2023-01-10T05:55:43;8.70;;;2.47;;
35578;SDS011;21687;48.900;9.188;2023-01-10T05:58:20;10.17;;;2.80;;
35578;SDS011;21687;48.900;9.188;2023-01-10T06:00:46;9.00;;;3.03;;
35578;SDS011;21687;48.900;9.188;2023-01-10T06:03:13;11.23;;;3.63;;
35578;SDS011;21687;48.900;9.188;2023-01-10T06:05:39;11.57;;;2.97;;
35578;SDS011;21687;48.900;9.188;2023-01-10T06:08:05;12.97;;;2.90;;
35578;SDS011;21687;48.900;9.188;2023-01-10T06:10:32;9.20;;;2.70;;
35578;SDS011;21687;48.900;9.188;2023-01-10T06:12:58;7.30;;;2.73;;
35578;SDS011;21687;48.900;9.188;2023-01-10T06:15:24;7.93;;;2.50;;
35578;SDS011;21687;48.900;9.188;2023-01-10T06:17:52;16.73;;;2.70;;
35578;SDS011;21687;48.900;9.188;2023-01-10T06:20:18;9.40;;;2.43;;
35578;SDS011;21687;48.900;9.188;2023-01-10T06:22:44;8.67;;;2.67;;
35578;SDS011;21687;48.900;9.188;2023-01-10T06:25:11;9.33;;;2.50;;
35578;SDS011;21687;48.900;9.188;2023-01-10T06:27:41;9.87;;;2.27;;
35578;SDS011;21687;48.900;9.188;2023-01-10T06:30:08;8.90;;;2.23;;
35578;SDS011;21687;48.900;9.188;2023-01-10T06:32:36;8.97;;;2.20;;
35578;SDS011;21687;48.900;9.188;2023-01-10T06:35:04;9.87;;;2.10;;
35578;SDS011;21687;48.900;9.188;2023-01-10T06:37:31;6.73;;;2.30;;
35578;SDS011;21687;48.900;9.188;2023-01-10T06:39:57;6.13;;;2.43;;
35578;SDS011;21687;48.900;9.188;2023-01-10T06:42:24;6.40;;;2.10;;
35578;SDS011;21687;48.900;9.188;2023-01-10T06:44:50;7.67;;;2.63;;
35578;SDS011;21687;48.900;9.188;2023-01-10T06:47:16;12.63;;;3.07;;
35578;SDS011;21687;48.900;9.188;2023-01-10T06:49:42;8.17;;;2.53;;
35578;SDS011;21687;48.900;9.188;2023-01-10T06:52:09;13.43;;;2.93;;
35578;SDS011;21687;48.900;9.188;2023-01-10T06:54:35;5.67;;;2.27;;
35578;SDS011;21687;48.900;9.188;2023-01-10T06:57:01;8.73;;;2.60;;
35578;SDS011;21687;48.900;9.188;2023-01-10T06:59:28;12.90;;;3.27;;
35578;SDS011;21687;48.900;9.188;2023-01-10T07:01:55;9.60;;;2.20;;
35578;SDS011;21687;48.900;9.188;2023-01-10T07:04:21;6.47;;;2.63;;
35578;SDS011;21687;48.900;9.188;2023-01-10T07:06:47;9.73;;;2.60;;
35578;SDS011;21687;48.900;9.188;2023-01-10T07:09:13;7.10;;;2.23;;
35578;SDS011;21687;48.900;9.188;2023-01-10T07:11:40;9.60;;;2.20;;
35578;SDS011;21687;48.900;9.188;2023-01-10T07:14:06;8.77;;;2.37;;
35578;SDS011;21687;48.900;9.188;2023-01-10T07:16:33;11.13;;;2.93;;
35578;SDS011;21687;48.900;9.188;2023-01-10T07:19:00;13.03;;;2.53;;
35578;SDS011;21687;48.900;9.188;2023-01-10T07:21:26;10.50;;;2.93;;
35578;SDS011;21687;48.900;9.188;2023-01-10T07:23:53;10.77;;;2.27;;
35578;SDS011;21687;48.900;9.188;2023-01-10T07:26:19;9.50;;;3.03;;
35578;SDS011;21687;48.900;9.188;2023-01-10T07:28:48;8.43;;;2.20;;
35578;SDS011;21687;48.900;9.188;2023-01-10T07:31:16;7.70;;;2.90;;
35578;SDS011;21687;48.900;9.188;2023-01-10T07:33:43;8.60;;;2.33;;
35578;SDS011;21687;48.900;9.188;2023-01-10T07:36:10;9.27;;;2.40;;
35578;SDS011;21687;48.900;9.188;2023-01-10T07:38:37;8.23;;;2.70;;
35578;SDS011;21687;48.900;9.188;2023-01-10T07:41:03;7.23;;;3.00;;
35578;SDS011;21687;48.900;9.188;2023-01-10T07:43:30;10.23;;;2.43;;
35578;SDS011;21687;48.900;9.188;2023-01-10T07:45:57;4.87;;;2.20;;
35578;SDS011;21687;48.900;9.188;2023-01-10T07:48:24;8.30;;;2.67;;
35578;SDS011;21687;48.900;9.188;2023-01-10T07:50:54;10.73;;;2.77;;
35578;SDS011;21687;48.900;9.188;2023-01-10T07:53:25;9.37;;;3.43;;
35578;SDS011;21687;48.900;9.188;2023-01-10T07:55:52;9.07;;;2.60;;
35578;SDS011;21687;48.900;9.188;2023-01-10T07:58:22;7.23;;;2.40;;
35578;SDS011;21687;48.900;9.188;2023-01-10T08:00:48;11.00;;;2.90;;
35578;SDS011;21687;48.900;9.188;2023-01-10T08:03:15;10.80;;;2.90;;
35578;SDS011;21687;48.900;9.188;2023-01-10T08:05:42;15.00;;;3.17;;
35578;SDS011;21687;48.900;9.188;2023-01-10T08:08:09;11.50;;;3.07;;
35578;SDS011;21687;48.900;9.188;2023-01-10T08:10:37;8.57;;;2.63;;
35578;SDS011;21687;48.900;9.188;2023-01-10T08:13:04;8.73;;;3.03;;
35578;SDS011;21687;48.900;9.188;2023-01-10T08:15:30;10.13;;;2.80;;
35578;SDS011;21687;48.900;9.188;2023-01-10T08:18:00;11.57;;;3.13;;
35578;SDS011;21687;48.900;9.188;2023-01-10T08:20:27;11.63;;;3.00;;
35578;SDS011;21687;48.900;9.188;2023-01-10T08:22:57;10.33;;;3.13;;
35578;SDS011;21687;48.900;9.188;2023-01-10T08:25:24;11.87;;;4.93;;
35578;SDS011;21687;48.900;9.188;2023-01-10T08:27:51;9.17;;;3.23;;
35578;SDS011;21687;48.900;9.188;2023-01-10T08:30:17;8.77;;;2.90;;
35578;SDS011;21687;48.900;9.188;2023-01-10T08:32:44;8.70;;;2.30;;
35578;SDS011;21687;48.900;9.188;2023-01-10T08:35:10;10.33;;;2.87;;
35578;SDS011;21687;48.900;9.188;2023-01-10T08:37:36;10.53;;;2.20;;
35578;SDS011;21687;48.900;9.188;2023-01-10T08:40:02;6.57;;;2.57;;
35578;SDS011;21687;48.900;9.188;2023-01-10T08:42:29;13.67;;;3.37;;
35578;SDS011;21687;48.900;9.188;2023-01-10T08:44:55;7.53;;;2.80;;
35578;SDS011;21687;48.900;9.188;2023-01-10T08:47:22;10.17;;;3.43;;
35578;SDS011;21687;48.900;9.188;2023-01-10T08:49:48;13.87;;;3.57;;
35578;SDS011;21687;48.900;9.188;2023-01-10T08:52:15;9.03;;;2.83;;
35578;SDS011;21687;48.900;9.188;2023-01-10T08:54:41;10.90;;;3.10;;
35578;SDS011;21687;48.900;9.188;2023-01-10T08:57:08;10.60;;;3.57;;
35578;SDS011;21687;48.900;9.188;2023-01-10T08:59:34;10.30;;;2.70;;
35578;SDS011;21687;48.900;9.188;2023-01-10T09:02:00;8.07;;;3.20;;
35578;SDS011;21687;48.900;9.188;2023-01-10T09:04:29;9.23;;;3.10;;
35578;SDS011;21687;48.900;9.188;2023-01-10T09:06:55;12.20;;;3.20;;
35578;SDS011;21687;48.900;9.188;2023-01-10T09:09:22;7.03;;;2.40;;
35578;SDS011;21687;48.900;9.188;2023-01-10T09:11:48;9.93;;;3.03;;
35578;SDS011;21687;48.900;9.188;2023-01-10T09:14:14;11.93;;;2.70;;
35578;SDS011;21687;48.900;9.188;2023-01-10T09:16:40;7.27;;;2.90;;
35578;SDS011;21687;48.900;9.188;2023-01-10T09:19:06;8.60;;;2.83;;
35578;SDS011;21687;48.900;9.188;2023-01-10T09:21:33;12.50;;;3.07;;
35578;SDS011;21687;48.900;9.188;2023-01-10T09:23:59;8.37;;;2.73;;
35578;SDS011;21687;48.900;9.188;2023-01-10T09:26:25;8.40;;;2.67;;
35578;SDS011;21687;48.900;9.188;2023-01-10T09:28:51;9.33;;;3.37;;
35578;SDS011;21687;48.900;9.188;2023-01-10T09:31:18;11.20;;;4.17;;
35578;SDS011;21687;48.900;9.188;2023-01-10T09:33:44;8.93;;;2.83;;
35578;SDS011;21687;48.900;9.188;2023-01-10T09:36:12;12.13;;;4.00;;
35578;SDS011;21687;48.900;9.188;2023-01-10T09:38:39;13.13;;;3.37;;
35578;SDS011;21687;48.900;9.188;2023-01-10T09:46:46;9.10;;;2.47;;
35578;SDS011;21687;48.900;9.188;2023-01-10T09:52:19;10.17;;;2.67;;
35578;SDS011;21687;48.900;9.188;2023-01-10T09:54:54;8.27;;;2.70;;
35578;SDS011;21687;48.900;9.188;2023-01-10T09:57:24;8.27;;;2.60;;
35578;SDS011;21687;48.900;9.188;2023-01-10T09:59:50;7.97;;;2.57;;
35578;SDS011;21687;48.900;9.188;2023-01-10T10:02:21;7.10;;;2.30;;
35578;SDS011;21687;48.900;9.188;2023-01-10T10:05:14;8.87;;;2.10;;
35578;SDS011;21687;48.900;9.188;2023-01-10T10:07:44;5.47;;;2.20;;
35578;SDS011;21687;48.900;9.188;2023-01-10T10:10:25;12.70;;;3.50;;
35578;SDS011;21687;48.900;9.188;2023-01-10T10:16:19;5.07;;;3.47;;
35578;SDS011;21687;48.900;9.188;2023-01-10T10:21:37;10.80;;;2.60;;
35578;SDS011;21687;48.900;9.188;2023-01-10T10:24:31;6.97;;;3.23;;
35578;SDS011;21687;48.900;9.188;2023-01-10T10:37:57;7.57;;;2.50;;
35578;SDS011;21687;48.900;9.188;2023-01-10T10:40:33;5.53;;;2.20;;
35578;SDS011;21687;48.900;9.188;2023-01-10T10:43:15;6.97;;;1.90;;
35578;SDS011;21687;48.900;9.188;2023-01-10T10:45:56;7.10;;;2.60;;
35578;SDS011;21687;48.900;9.188;2023-01-10T10:48:33;5.93;;;2.03;;
35578;SDS011;21687;48.900;9.188;2023-01-10T10:53:53;6.17;;;1.90;;
35578;SDS011;21687;48.900;9.188;2023-01-10T10:56:21;5.63;;;1.80;;
35578;SDS011;21687;48.900;9.188;2023-01-10T10:58:50;8.60;;;1.97;;
35578;SDS011;21687;48.900;9.188;2023-01-10T11:01:19;7.50;;;1.90;;
35578;SDS011;21687;48.900;9.188;2023-01-10T11:03:57;4.33;;;1.93;;
35578;SDS011;21687;48.900;9.188;2023-01-10T11:06:26;7.40;;;2.17;;
35578;SDS011;21687;48.900;9.188;2023-01-10T11:08:55;4.80;;;1.93;;
35578;SDS011;21687;48.900;9.188;2023-01-10T11:11:25;5.23;;;2.30;;
35578;SDS011;21687;48.900;9.188;2023-01-10T11:13:59;4.83;;;1.60;;
35578;SDS011;21687;48.900;9.188;2023-01-10T11:19:08;5.83;;;1.93;;
35578;SDS011;21687;48.900;9.188;2023-01-10T11:21:47;4.10;;;1.93;;
35578;SDS011;21687;48.900;9.188;2023-01-10T11:26:57;7.63;;;1.80;;
35578;SDS011;21687;48.900;9.188;2023-01-10T11:29:37;9.60;;;2.53;;
35578;SDS011;21687;48.900;9.188;2023-01-10T11:32:08;5.67;;;1.80;;
35578;SDS011;21687;48.900;9.188;2023-01-10T11:34:39;5.70;;;2.07;;
35578;SDS011;21687;48.900;9.188;2023-01-10T11:37:19;4.97;;;2.07;;
35578;SDS011;21687;48.900;9.188;2023-01-10T11:39:45;4.60;;;1.60;;
35578;SDS011;21687;48.900;9.188;2023-01-10T11:42:27;4.80;;;1.80;;
35578;SDS011;21687;48.900;9.188;2023-01-10T11:44:55;4.73;;;1.70;;
35578;SDS011;21687;48.900;9.188;2023-01-10T11:47:44;5.17;;;2.23;;
35578;SDS011;21687;48.900;9.188;2023-01-10T11:50:16;4.30;;;1.90;;
35578;SDS011;21687;48.900;9.188;2023-01-10T11:52:47;7.93;;;2.27;;
35578;SDS011;21687;48.900;9.188;2023-01-10T11:55:34;5.03;;;1.70;;
35578;SDS011;21687;48.900;9.188;2023-01-10T11:58:09;4.93;;;1.80;;
35578;SDS011;21687;48.900;9.188;2023-01-10T12:00:46;4.03;;;1.80;;
35578;SDS011;21687;48.900;9.188;2023-01-10T12:03:15;5.10;;;1.90;;
35578;SDS011;21687;48.900;9.188;2023-01-10T12:05:55;3.73;;;2.10;;
35578;SDS011;21687;48.900;9.188;2023-01-10T12:08:25;2.77;;;1.90;;
35578;SDS011;21687;48.900;9.188;2023-01-10T12:11:03;4.03;;;1.77;;
35578;SDS011;21687;48.900;9.188;2023-01-10T12:13:47;4.83;;;1.93;;
35578;SDS011;21687;48.900;9.188;2023-01-10T12:18:46;5.00;;;1.67;;
35578;SDS011;21687;48.900;9.188;2023-01-10T12:21:22;8.33;;;2.07;;
35578;SDS011;21687;48.900;9.188;2023-01-10T12:24:01;5.20;;;2.00;;
35578;SDS011;21687;48.900;9.188;2023-01-10T12:26:31;5.77;;;1.70;;
35578;SDS011;21687;48.900;9.188;2023-01-10T12:29:00;4.63;;;1.70;;
35578;SDS011;21687;48.900;9.188;2023-01-10T12:31:41;4.43;;;1.83;;
35578;SDS011;21687;48.900;9.188;2023-01-10T12:34:15;9.10;;;2.30;;
35578;SDS011;21687;48.900;9.188;2023-01-10T12:39:40;7.33;;;2.97;;
35578;SDS011;21687;48.900;9.188;2023-01-10T12:42:13;7.27;;;3.07;;
35578;SDS011;21687;48.900;9.188;2023-01-10T12:45:22;3.73;;;2.10;;
35578;SDS011;21687;48.900;9.188;2023-01-10T12:48:02;2.20;;;2.00;;
35578;SDS011;21687;48.900;9.188;2023-01-10T12:50:54;4.60;;;2.80;;
35578;SDS011;21687;48.900;9.188;2023-01-10T12:55:59;4.80;;;2.70;;
35578;SDS011;21687;48.900;9.188;2023-01-10T12:58:46;8.90;;;3.67;;
35578;SDS011;21687;48.900;9.188;2023-01-10T13:01:23;5.43;;;1.60;;
35578;SDS011;21687;48.900;9.188;2023-01-10T13:04:02;5.53;;;2.07;;
35578;SDS011;21687;48.900;9.188;2023-01-10T13:06:35;7.03;;;2.13;;
35578;SDS011;21687;48.900;9.188;2023-01-10T13:09:22;6.27;;;2.70;;
35578;SDS011;21687;48.900;9.188;2023-01-10T13:14:35;3.43;;;1.43;;
35578;SDS011;21687;48.900;9.188;2023-01-10T13:22:41;3.40;;;1.60;;
35578;SDS011;21687;48.900;9.188;2023-01-10T13:25:19;4.57;;;1.60;;
35578;SDS011;21687;48.900;9.188;2023-01-10T13:27:54;4.30;;;1.50;;
35578;SDS011;21687;48.900;9.188;2023-01-10T13:30:36;6.53;;;2.17;;
35578;SDS011;21687;48.900;9.188;2023-01-10T13:35:44;4.13;;;1.87;;
35578;SDS011;21687;48.900;9.188;2023-01-10T13:38:21;4.73;;;1.50;;
35578;SDS011;21687;48.900;9.188;2023-01-10T13:41:07;5.67;;;1.73;;
35578;SDS011;21687;48.900;9.188;2023-01-10T13:44:00;5.60;;;1.60;;
35578;SDS011;21687;48.900;9.188;2023-01-10T13:51:27;4.13;;;1.40;;
35578;SDS011;21687;48.900;9.188;2023-01-10T13:54:01;4.47;;;1.63;;
35578;SDS011;21687;48.900;9.188;2023-01-10T13:58:55;6.23;;;1.83;;
35578;SDS011;21687;48.900;9.188;2023-01-10T14:01:40;3.47;;;1.43;;
35578;SDS011;21687;48.900;9.188;2023-01-10T14:04:30;3.03;;;1.30;;
35578;SDS011;21687;48.900;9.188;2023-01-10T14:07:05;5.67;;;1.67;;
35578;SDS011;21687;48.900;9.188;2023-01-10T14:10:09;1.90;;;1.27;;
35578;SDS011;21687;48.900;9.188;2023-01-10T14:12:47;5.40;;;1.67;;
35578;SDS011;21687;48.900;9.188;2023-01-10T14:15:22;6.97;;;1.60;;
35578;SDS011;21687;48.900;9.188;2023-01-10T14:18:00;3.77;;;1.67;;
35578;SDS011;21687;48.900;9.188;2023-01-10T14:20:29;5.40;;;1.50;;
35578;SDS011;21687;48.900;9.188;2023-01-10T14:23:06;6.03;;;1.83;;
35578;SDS011;21687;48.900;9.188;2023-01-10T14:25:43;5.23;;;1.63;;
35578;SDS011;21687;48.900;9.188;2023-01-10T14:28:22;3.80;;;1.57;;
35578;SDS011;21687;48.900;9.188;2023-01-10T14:31:07;4.40;;;1.30;;
35578;SDS011;21687;48.900;9.188;2023-01-10T14:33:42;5.43;;;2.10;;
35578;SDS011;21687;48.900;9.188;2023-01-10T14:36:16;3.07;;;1.33;;
35578;SDS011;21687;48.900;9.188;2023-01-10T14:38:48;2.27;;;1.37;;
35578;SDS011;21687;48.900;9.188;2023-01-10T14:41:19;4.43;;;1.80;;
35578;SDS011;21687;48.900;9.188;2023-01-10T14:44:05;6.90;;;1.77;;
35578;SDS011;21687;48.900;9.188;2023-01-10T14:46:55;3.10;;;1.63;;
35578;SDS011;21687;48.900;9.188;2023-01-10T14:49:27;3.40;;;1.47;;
35578;SDS011;21687;48.900;9.188;2023-01-10T14:52:15;4.10;;;1.70;;
35578;SDS011;21687;48.900;9.188;2023-01-10T14:54:44;6.70;;;1.90;;
35578;SDS011;21687;48.900;9.188;2023-01-10T14:57:17;4.63;;;1.73;;
35578;SDS011;21687;48.900;9.188;2023-01-10T14:59:45;5.67;;;2.10;;
35578;SDS011;21687;48.900;9.188;2023-01-10T15:02:19;7.13;;;2.50;;
35578;SDS011;21687;48.900;9.188;2023-01-10T15:04:54;4.97;;;2.70;;
35578;SDS011;21687;48.900;9.188;2023-01-10T15:07:34;5.43;;;2.37;;
35578;SDS011;21687;48.900;9.188;2023-01-10T15:10:02;9.13;;;2.90;;
35578;SDS011;21687;48.900;9.188;2023-01-10T15:12:48;7.03;;;2.60;;
35578;SDS011;21687;48.900;9.188;2023-01-10T15:15:18;6.00;;;2.17;;
35578;SDS011;21687;48.900;9.188;2023-01-10T15:17:46;6.53;;;2.60;;
35578;SDS011;21687;48.900;9.188;2023-01-10T15:20:14;6.77;;;2.30;;
35578;SDS011;21687;48.900;9.188;2023-01-10T15:22:49;4.20;;;1.77;;
35578;SDS011;21687;48.900;9.188;2023-01-10T15:27:52;5.77;;;2.00;;
35578;SDS011;21687;48.900;9.188;2023-01-10T15:30:21;4.67;;;1.97;;
35578;SDS011;21687;48.900;9.188;2023-01-10T15:32:50;3.80;;;2.00;;
35578;SDS011;21687;48.900;9.188;2023-01-10T15:35:20;4.50;;;1.73;;
35578;SDS011;21687;48.900;9.188;2023-01-10T15:37:51;7.60;;;2.47;;
35578;SDS011;21687;48.900;9.188;2023-01-10T15:40:22;7.03;;;2.17;;
35578;SDS011;21687;48.900;9.188;2023-01-10T15:43:08;6.20;;;2.10;;
35578;SDS011;21687;48.900;9.188;2023-01-10T15:45:36;3.73;;;1.80;;
35578;SDS011;21687;48.900;9.188;2023-01-10T15:48:04;4.53;;;2.60;;
35578;SDS011;21687;48.900;9.188;2023-01-10T15:54:06;5.27;;;2.70;;
35578;SDS011;21687;48.900;9.188;2023-01-10T15:56:57;3.80;;;2.10;;
35578;SDS011;21687;48.900;9.188;2023-01-10T15:59:32;4.63;;;2.47;;
35578;SDS011;21687;48.900;9.188;2023-01-10T16:04:46;8.60;;;2.10;;
35578;SDS011;21687;48.900;9.188;2023-01-10T16:07:18;6.87;;;2.20;;
35578;SDS011;21687;48.900;9.188;2023-01-10T16:12:50;4.63;;;2.30;;
35578;SDS011;21687;48.900;9.188;2023-01-10T16:15:36;5.20;;;2.70;;
35578;SDS011;21687;48.900;9.188;2023-01-10T16:18:08;4.70;;;2.27;;
35578;SDS011;21687;48.900;9.188;2023-01-10T16:20:35;6.50;;;2.10;;
35578;SDS011;21687;48.900;9.188;2023-01-10T16:23:05;5.07;;;2.10;;
35578;SDS011;21687;48.900;9.188;2023-01-10T16:25:37;5.90;;;2.37;;
35578;SDS011;21687;48.900;9.188;2023-01-10T16:28:08;6.93;;;2.97;;
35578;SDS011;21687;48.900;9.188;2023-01-10T16:30:36;7.47;;;2.70;;
35578;SDS011;21687;48.900;9.188;2023-01-10T16:33:23;6.30;;;2.73;;
35578;SDS011;21687;48.900;9.188;2023-01-10T16:35:55;9.70;;;2.87;;
35578;SDS011;21687;48.900;9.188;2023-01-10T16:38:24;8.10;;;2.90;;
35578;SDS011;21687;48.900;9.188;2023-01-10T16:40:52;5.97;;;2.50;;
35578;SDS011;21687;48.900;9.188;2023-01-10T16:43:24;10.57;;;3.17;;
35578;SDS011;21687;48.900;9.188;2023-01-10T16:45:52;6.43;;;2.10;;
35578;SDS011;21687;48.900;9.188;2023-01-10T16:48:25;4.97;;;2.10;;
35578;SDS011;21687;48.900;9.188;2023-01-10T16:51:15;3.17;;;2.20;;
35578;SDS011;21687;48.900;9.188;2023-01-10T16:53:58;3.73;;;2.20;;
35578;SDS011;21687;48.900;9.188;2023-01-10T16:56:29;5.90;;;2.60;;